createdAt,value
2023-03-16T00:01:59.029Z,45.80
2023-03-16T00:07:00.877Z,35.20
2023-03-16T00:12:03.746Z,31.60
2023-03-16T00:17:06.654Z,39.90
2023-03-16T00:22:08.511Z,24.00
2023-03-16T00:27:14.724Z,42.00
2023-03-16T00:32:20.768Z,48.10
2023-03-16T00:37:25.223Z,32.40
2023-03-16T00:42:29.909Z,38.30
2023-03-16T00:47:34.763Z,47.30
2023-03-16T00:52:37.808Z,47.80
2023-03-16T00:57:39.587Z,36.90
2023-03-16T01:02:42.195Z,65.40
2023-03-16T01:07:45.305Z,51.60
2023-03-16T01:12:47.174Z,40.50
2023-03-16T01:17:49.401Z,47.80
2023-03-16T01:22:51.365Z,60.80
2023-03-16T01:27:53.753Z,49.70
2023-03-16T01:32:55.881Z,55.40
2023-03-16T01:37:58.328Z,90.80
2023-03-16T01:43:04.586Z,83.30
2023-03-16T01:48:15.715Z,56.70
2023-03-16T01:53:19.904Z,64.70
2023-03-16T01:58:22.516Z,69.70
2023-03-16T02:03:26.827Z,58.70
2023-03-16T02:08:37.641Z,51.50
2023-03-16T02:13:39.547Z,58.10
2023-03-16T02:18:41.584Z,133.70
2023-03-16T02:23:46.045Z,98.70
2023-03-16T02:29:17.939Z,50.10
2023-03-16T02:34:21.510Z,46.50
2023-03-16T02:39:24.000Z,35.30
2023-03-16T02:44:37.010Z,32.30
2023-03-16T02:49:44.116Z,35.00
2023-03-16T02:54:45.901Z,77.60
2023-03-16T02:59:48.544Z,91.10
2023-03-16T03:04:54.447Z,40.40
2023-03-16T03:09:58.704Z,31.80
2023-03-16T03:15:00.926Z,43.60
2023-03-16T03:20:13.724Z,40.90
2023-03-16T03:25:18.426Z,43.50
2023-03-16T03:30:22.801Z,111.10
2023-03-16T03:35:24.661Z,108.70
2023-03-16T03:40:27.350Z,51.50
2023-03-16T03:45:34.547Z,46.70
2023-03-16T03:50:38.586Z,41.40
2023-03-16T03:56:03.356Z,36.80
2023-03-16T04:01:05.336Z,45.30
2023-03-16T04:06:08.298Z,137.90
2023-03-16T04:11:11.957Z,127.10
2023-03-16T04:16:16.350Z,56.70
2023-03-16T04:21:21.169Z,43.40
2023-03-16T04:26:22.985Z,56.70
2023-03-16T04:31:25.085Z,52.30
2023-03-16T04:36:27.444Z,52.30
2023-03-16T04:41:30.397Z,104.70
2023-03-16T04:46:36.389Z,86.60
2023-03-16T04:51:42.639Z,45.00
2023-03-16T04:56:48.016Z,47.40
2023-03-16T05:02:10.012Z,54.70
2023-03-16T05:07:12.504Z,64.20
2023-03-16T05:12:16.508Z,44.30
2023-03-16T05:17:19.243Z,113.60
2023-03-16T05:22:21.245Z,136.70
2023-03-16T05:27:49.613Z,61.50
2023-03-16T05:32:57.935Z,73.70
2023-03-16T05:38:00.362Z,90.20
2023-03-16T05:43:04.426Z,85.50
2023-03-16T05:48:08.337Z,53.50
2023-03-16T05:53:13.855Z,229.80
2023-03-16T05:58:16.414Z,397.10
2023-03-16T06:03:18.445Z,139.00
2023-03-16T06:08:21.084Z,92.60
2023-03-16T06:13:24.214Z,95.50
2023-03-16T06:18:26.270Z,136.40
2023-03-16T06:23:28.160Z,92.30
2023-03-16T06:28:31.124Z,51.30
2023-03-16T06:33:33.187Z,50.80
2023-03-16T06:38:35.106Z,49.50
2023-03-16T06:43:39.837Z,64.40
2023-03-16T06:48:42.145Z,39.90
2023-03-16T06:53:44.168Z,49.60
2023-03-16T06:58:46.148Z,39.80
2023-03-16T07:03:48.145Z,39.40
2023-03-16T07:08:57.472Z,29.20
2023-03-16T07:13:59.621Z,33.60
2023-03-16T07:19:02.095Z,29.40
2023-03-16T07:24:03.990Z,25.80
2023-03-16T07:29:10.096Z,30.50
2023-03-16T07:34:12.332Z,27.50
2023-03-16T07:39:18.634Z,46.60
2023-03-16T07:44:20.851Z,36.80
2023-03-16T07:49:23.570Z,36.10
2023-03-16T08:00:35.909Z,24.70
2023-03-16T08:05:38.016Z,28.90
2023-03-16T08:10:44.186Z,29.90
2023-03-16T08:15:58.360Z,21.70
2023-03-16T08:21:08.616Z,21.20
2023-03-16T08:26:10.838Z,21.10
2023-03-16T08:31:14.929Z,20.00
2023-03-16T08:36:25.819Z,20.10
2023-03-16T08:41:30.983Z,18.00
2023-03-16T08:46:34.577Z,25.90
2023-03-16T08:51:37.133Z,16.80
2023-03-16T08:56:39.105Z,8.90
2023-03-16T09:01:41.395Z,10.10
2023-03-16T09:06:43.195Z,14.90
2023-03-16T09:11:45.298Z,14.00
2023-03-16T09:16:47.048Z,10.60
2023-03-16T09:21:48.776Z,32.50
2023-03-16T09:26:50.722Z,13.20
2023-03-16T09:31:52.765Z,15.10
2023-03-16T09:36:55.473Z,13.10
2023-03-16T09:42:19.249Z,5.30
2023-03-16T09:47:34.096Z,8.50
2023-03-16T09:52:58.759Z,5.10
2023-03-16T09:58:04.696Z,5.30
2023-03-16T10:03:25.248Z,10.30
2023-03-16T10:08:40.947Z,6.30
2023-03-16T10:13:58.374Z,12.50
2023-03-16T10:19:11.524Z,7.70
2023-03-16T10:24:22.099Z,10.00
2023-03-16T10:29:23.750Z,7.60
2023-03-16T10:34:26.152Z,12.30
2023-03-16T10:39:36.694Z,9.30
2023-03-16T10:44:40.244Z,6.70
2023-03-16T10:49:48.717Z,8.30
2023-03-16T10:55:07.816Z,18.40
2023-03-16T11:00:16.030Z,5.90
2023-03-16T11:05:17.726Z,5.70
2023-03-16T11:10:46.001Z,13.70
2023-03-16T11:15:57.865Z,21.10
2023-03-16T11:21:12.757Z,7.70
2023-03-16T11:26:23.198Z,6.70
2023-03-16T11:31:43.065Z,8.40
2023-03-16T11:36:56.755Z,6.60
2023-03-16T11:42:07.833Z,5.10
2023-03-16T11:47:34.141Z,5.40
2023-03-16T11:52:47.005Z,9.40
2023-03-16T11:58:03.997Z,11.40
2023-03-16T12:03:25.231Z,14.30
2023-03-16T12:08:48.695Z,6.00
2023-03-16T12:13:53.544Z,8.00
2023-03-16T12:19:06.745Z,9.00
2023-03-16T12:24:18.198Z,10.60
2023-03-16T12:29:32.818Z,25.30
2023-03-16T12:35:00.984Z,10.50
2023-03-16T12:40:09.342Z,5.10
2023-03-16T12:45:34.188Z,8.90
2023-03-16T12:50:49.261Z,11.70
2023-03-16T12:55:51.633Z,10.80
2023-03-16T13:00:59.588Z,8.70
2023-03-16T13:06:03.586Z,9.60
2023-03-16T13:11:12.148Z,2.50
2023-03-16T13:16:25.918Z,5.50
2023-03-16T13:21:35.855Z,9.70
2023-03-16T13:26:49.927Z,5.00
2023-03-16T13:31:53.148Z,7.60
2023-03-16T13:36:57.259Z,5.80
2023-03-16T13:42:09.808Z,7.10
2023-03-16T13:47:20.199Z,5.80
2023-03-16T13:52:34.349Z,10.90
2023-03-16T13:57:39.184Z,6.00
2023-03-16T14:02:43.617Z,8.50
2023-03-16T14:07:51.139Z,8.10
2023-03-16T14:12:58.766Z,3.90
2023-03-16T14:18:37.394Z,4.80
2023-03-16T14:23:47.863Z,9.20
2023-03-16T14:29:07.356Z,4.90
2023-03-16T14:34:29.677Z,9.30
2023-03-16T14:39:31.432Z,7.20
2023-03-16T14:44:35.959Z,8.30
2023-03-16T14:49:40.987Z,6.40
2023-03-16T14:54:44.566Z,8.20
2023-03-16T14:59:46.899Z,6.20
2023-03-16T15:04:49.497Z,6.50
2023-03-16T15:09:53.901Z,7.70
2023-03-16T15:15:14.304Z,10.20
2023-03-16T15:20:24.276Z,5.00
2023-03-16T15:25:35.773Z,8.80
2023-03-16T15:30:38.207Z,5.70
2023-03-16T15:35:41.611Z,6.70
2023-03-16T15:40:45.477Z,4.20
2023-03-16T15:45:47.982Z,3.80
2023-03-16T15:51:25.690Z,8.70
2023-03-16T15:56:30.919Z,9.70
2023-03-16T16:01:40.155Z,6.60
2023-03-16T16:06:42.479Z,12.20
2023-03-16T16:11:47.155Z,9.80
2023-03-16T16:16:48.947Z,6.50
2023-03-16T16:21:50.698Z,10.80
2023-03-16T16:26:55.271Z,8.80
2023-03-16T16:31:57.860Z,9.10
2023-03-16T16:36:59.701Z,10.90
2023-03-16T16:42:01.897Z,14.80
2023-03-16T16:47:06.358Z,14.60
2023-03-16T16:52:15.264Z,15.20
2023-03-16T16:57:20.849Z,9.40
2023-03-16T17:02:32.225Z,15.50
2023-03-16T17:07:33.950Z,17.90
2023-03-16T17:12:35.929Z,32.10
2023-03-16T17:17:37.669Z,43.30
2023-03-16T17:22:39.369Z,57.90
2023-03-16T17:27:42.926Z,41.50
2023-03-16T17:32:44.667Z,53.40
2023-03-16T17:37:47.973Z,48.60
2023-03-16T17:42:50.444Z,50.40
2023-03-16T17:47:54.042Z,60.30
2023-03-16T17:52:56.700Z,38.30
2023-03-16T17:57:59.189Z,31.00
2023-03-16T18:03:04.602Z,47.30
2023-03-16T18:08:26.181Z,39.40
2023-03-16T18:13:32.775Z,29.00
2023-03-16T18:18:40.285Z,28.40
2023-03-16T18:23:42.291Z,48.40
2023-03-16T18:28:44.687Z,34.80
2023-03-16T18:33:52.736Z,46.00
2023-03-16T18:38:58.618Z,35.80
2023-03-16T18:44:17.661Z,27.90
2023-03-16T18:49:32.698Z,23.10
2023-03-16T18:54:38.899Z,34.70
2023-03-16T18:59:41.122Z,33.40
2023-03-16T19:04:43.122Z,40.30
2023-03-16T19:09:45.079Z,79.80
2023-03-16T19:14:47.782Z,67.50
2023-03-16T19:19:49.754Z,52.70
2023-03-16T19:24:55.388Z,41.90
2023-03-16T19:29:58.924Z,41.70
2023-03-16T19:35:01.231Z,50.50
2023-03-16T19:40:03.369Z,43.30
2023-03-16T19:45:06.828Z,40.40
2023-03-16T19:50:15.869Z,33.90
2023-03-16T19:55:21.127Z,83.50
2023-03-16T20:00:26.112Z,222.80
2023-03-16T20:05:31.575Z,225.50
2023-03-16T20:10:33.573Z,210.40
2023-03-16T20:15:37.650Z,134.80
2023-03-16T20:20:39.653Z,135.90
2023-03-16T20:25:41.792Z,84.40
2023-03-16T20:30:43.591Z,88.50
2023-03-16T20:35:46.897Z,72.50
2023-03-16T20:40:52.246Z,63.20
2023-03-16T20:45:57.384Z,60.10
2023-03-16T20:51:00.659Z,61.40
2023-03-16T20:56:03.213Z,278.50
2023-03-16T21:01:05.780Z,311.30
2023-03-16T21:06:23.686Z,159.50
2023-03-16T21:11:37.320Z,101.40
2023-03-16T21:16:40.608Z,119.20
2023-03-16T21:21:42.579Z,111.80
2023-03-16T21:26:47.063Z,100.70
2023-03-16T21:31:49.614Z,131.70
2023-03-16T21:36:51.620Z,166.00
2023-03-16T21:41:53.711Z,241.10
2023-03-16T21:46:58.471Z,241.10
2023-03-16T21:52:01.512Z,230.60
2023-03-16T21:57:13.929Z,311.50
2023-03-16T22:02:27.729Z,348.90
2023-03-16T22:07:29.601Z,286.90
2023-03-16T22:12:31.960Z,196.80
2023-03-16T22:17:35.989Z,192.30
2023-03-16T22:22:37.704Z,204.10
2023-03-16T22:27:40.102Z,163.10
2023-03-16T22:32:42.796Z,124.20
2023-03-16T22:37:44.797Z,113.60
2023-03-16T22:42:47.564Z,123.00
2023-03-16T22:48:19.605Z,93.40
2023-03-16T22:53:45.956Z,232.90
2023-03-16T22:58:51.343Z,232.60
2023-03-16T23:03:53.791Z,183.70
2023-03-16T23:08:56.093Z,145.90
2023-03-16T23:13:59.738Z,150.30
2023-03-16T23:19:03.250Z,84.60
2023-03-16T23:24:05.705Z,100.80
2023-03-16T23:29:08.106Z,184.80
2023-03-16T23:34:12.229Z,193.90
2023-03-16T23:39:14.376Z,266.60
2023-03-16T23:44:18.669Z,179.20
2023-03-16T23:49:23.578Z,166.00
2023-03-16T23:54:30.815Z,166.00
2023-03-16T23:59:33.176Z,124.10
